Terminal Aerodrome Forecast
Issued by NWS

Home | Current Version | Previous Version | Graphics & Text | Print | Product List | Glossary On
Versions: 1 2 3 4 5 6 7 8 9 10 11 12 13 14 15 16
000
FTUS43 KFGF 302300
TAFBJI
TAF
KBJI 302322Z 3100/3124 17008KT P6SM BKN025
     FM310200 26006KT P6SM SCT015 BKN250
     FM310500 33010KT P6SM OVC015
     FM311600 34011KT P6SM BKN080=

USA.gov is the U.S. government's official web portal to all federal, state and local government web resources and services.